sensor_id;sensor_type;location;lat;lon;timestamp;pressure;altitude;pressure_sealevel;temperature;humidity
24390;BME280;12510;56.468;-3.004;2023-04-15T00:01:53;63517.41;;;-148.33;100.00
24390;BME280;12510;56.468;-3.004;2023-04-15T00:04:20;63517.41;;;-148.33;100.00
24390;BME280;12510;56.468;-3.004;2023-04-15T00:06:50;63517.41;;;-148.33;100.00
24390;BME280;12510;56.468;-3.004;2023-04-15T00:09:19;63517.41;;;-148.33;100.00
24390;BME280;12510;56.468;-3.004;2023-04-15T00:11:45;63517.41;;;-148.33;100.00
24390;BME280;12510;56.468;-3.004;2023-04-15T00:14:12;63517.41;;;-148.33;100.00
24390;BME280;12510;56.468;-3.004;2023-04-15T00:16:39;63517.41;;;-148.33;100.00
24390;BME280;12510;56.468;-3.004;2023-04-15T00:19:05;63517.41;;;-148.33;100.00
24390;BME280;12510;56.468;-3.004;2023-04-15T00:21:32;63517.41;;;-148.33;100.00
24390;BME280;12510;56.468;-3.004;2023-04-15T00:23:58;63517.41;;;-148.33;100.00
24390;BME280;12510;56.468;-3.004;2023-04-15T00:26:28;63517.41;;;-148.33;100.00
24390;BME280;12510;56.468;-3.004;2023-04-15T00:28:55;63517.41;;;-148.33;100.00
24390;BME280;12510;56.468;-3.004;2023-04-15T00:31:25;63517.41;;;-148.33;100.00
24390;BME280;12510;56.468;-3.004;2023-04-15T00:33:53;63517.41;;;-148.33;100.00
24390;BME280;12510;56.468;-3.004;2023-04-15T00:36:21;63517.41;;;-148.33;100.00
24390;BME280;12510;56.468;-3.004;2023-04-15T00:38:49;63517.41;;;-148.33;100.00
24390;BME280;12510;56.468;-3.004;2023-04-15T00:41:17;63517.41;;;-148.33;100.00
24390;BME280;12510;56.468;-3.004;2023-04-15T00:43:44;63517.41;;;-148.33;100.00
24390;BME280;12510;56.468;-3.004;2023-04-15T00:46:14;63517.41;;;-148.33;100.00
24390;BME280;12510;56.468;-3.004;2023-04-15T00:48:41;63517.41;;;-148.33;100.00
24390;BME280;12510;56.468;-3.004;2023-04-15T00:51:11;63517.41;;;-148.33;100.00
24390;BME280;12510;56.468;-3.004;2023-04-15T00:53:38;63517.41;;;-148.33;100.00
24390;BME280;12510;56.468;-3.004;2023-04-15T00:56:05;63517.41;;;-148.33;100.00
24390;BME280;12510;56.468;-3.004;2023-04-15T00:58:32;63517.41;;;-148.33;100.00
24390;BME280;12510;56.468;-3.004;2023-04-15T01:00:58;63517.41;;;-148.33;100.00
24390;BME280;12510;56.468;-3.004;2023-04-15T01:03:25;63517.41;;;-148.33;100.00
24390;BME280;12510;56.468;-3.004;2023-04-15T01:05:55;63517.41;;;-148.33;100.00
24390;BME280;12510;56.468;-3.004;2023-04-15T01:08:29;63517.41;;;-148.33;100.00
24390;BME280;12510;56.468;-3.004;2023-04-15T01:10:56;63517.41;;;-148.33;100.00
24390;BME280;12510;56.468;-3.004;2023-04-15T01:13:23;63517.41;;;-148.33;100.00
24390;BME280;12510;56.468;-3.004;2023-04-15T01:15:50;63517.41;;;-148.33;100.00
24390;BME280;12510;56.468;-3.004;2023-04-15T01:18:20;63517.41;;;-148.33;100.00
24390;BME280;12510;56.468;-3.004;2023-04-15T01:20:47;63517.41;;;-148.33;100.00
24390;BME280;12510;56.468;-3.004;2023-04-15T01:23:16;63517.41;;;-148.33;100.00
24390;BME280;12510;56.468;-3.004;2023-04-15T01:25:46;63517.41;;;-148.33;100.00
24390;BME280;12510;56.468;-3.004;2023-04-15T01:28:18;63517.41;;;-148.33;100.00
24390;BME280;12510;56.468;-3.004;2023-04-15T01:30:45;63517.41;;;-148.33;100.00
24390;BME280;12510;56.468;-3.004;2023-04-15T01:33:14;63517.41;;;-148.33;100.00
24390;BME280;12510;56.468;-3.004;2023-04-15T01:35:59;63517.41;;;-148.33;100.00
24390;BME280;12510;56.468;-3.004;2023-04-15T01:38:26;63517.41;;;-148.33;100.00
24390;BME280;12510;56.468;-3.004;2023-04-15T01:40:53;63517.41;;;-148.33;100.00
24390;BME280;12510;56.468;-3.004;2023-04-15T01:43:21;63517.41;;;-148.33;100.00
24390;BME280;12510;56.468;-3.004;2023-04-15T01:45:48;63517.41;;;-148.33;100.00
24390;BME280;12510;56.468;-3.004;2023-04-15T01:48:17;63517.41;;;-148.33;100.00
24390;BME280;12510;56.468;-3.004;2023-04-15T01:50:45;63517.41;;;-148.33;100.00
24390;BME280;12510;56.468;-3.004;2023-04-15T01:53:12;63517.41;;;-148.33;100.00
24390;BME280;12510;56.468;-3.004;2023-04-15T01:55:46;63517.41;;;-148.33;100.00
24390;BME280;12510;56.468;-3.004;2023-04-15T01:58:15;63517.41;;;-148.33;100.00
24390;BME280;12510;56.468;-3.004;2023-04-15T02:00:44;63517.41;;;-148.33;100.00
24390;BME280;12510;56.468;-3.004;2023-04-15T02:03:12;63517.41;;;-148.33;100.00
24390;BME280;12510;56.468;-3.004;2023-04-15T02:05:40;63517.41;;;-148.33;100.00
24390;BME280;12510;56.468;-3.004;2023-04-15T02:08:08;63517.41;;;-148.33;100.00
24390;BME280;12510;56.468;-3.004;2023-04-15T02:10:38;63517.41;;;-148.33;100.00
24390;BME280;12510;56.468;-3.004;2023-04-15T02:13:06;63517.41;;;-148.33;100.00
24390;BME280;12510;56.468;-3.004;2023-04-15T02:15:34;100318.31;;;37.56;nan
24390;BME280;12510;56.468;-3.004;2023-04-15T02:18:02;100533.69;;;12.27;nan
24390;BME280;12510;56.468;-3.004;2023-04-15T02:20:30;100581.81;;;8.39;nan
24390;BME280;12510;56.468;-3.004;2023-04-15T02:22:59;100597.81;;;7.34;nan
24390;BME280;12510;56.468;-3.004;2023-04-15T02:25:27;100603.16;;;6.86;nan
24390;BME280;12510;56.468;-3.004;2023-04-15T02:27:56;100597.56;;;6.55;nan
24390;BME280;12510;56.468;-3.004;2023-04-15T02:30:24;100517.28;;;6.31;nan
24390;BME280;12510;56.468;-3.004;2023-04-15T02:32:52;100327.63;;;6.14;nan
24390;BME280;12510;56.468;-3.004;2023-04-15T02:35:20;100237.63;;;7.61;nan
24390;BME280;12510;56.468;-3.004;2023-04-15T02:37:47;100299.59;;;8.47;nan
24390;BME280;12510;56.468;-3.004;2023-04-15T02:40:15;100376.38;;;8.70;nan
24390;BME280;12510;56.468;-3.004;2023-04-15T02:42:43;100483.28;;;8.89;nan
24390;BME280;12510;56.468;-3.004;2023-04-15T02:45:13;100537.16;;;8.83;nan
24390;BME280;12510;56.468;-3.004;2023-04-15T02:47:42;100546.47;;;9.09;nan
24390;BME280;12510;56.468;-3.004;2023-04-15T02:50:12;100577.69;;;9.54;nan
24390;BME280;12510;56.468;-3.004;2023-04-15T02:52:46;100536.97;;;7.19;nan
24390;BME280;12510;56.468;-3.004;2023-04-15T02:55:14;100532.03;;;6.32;nan
24390;BME280;12510;56.468;-3.004;2023-04-15T02:57:42;100529.19;;;5.48;nan
24390;BME280;12510;56.468;-3.004;2023-04-15T03:00:11;100483.00;;;6.47;nan
24390;BME280;12510;56.468;-3.004;2023-04-15T03:02:44;100442.59;;;5.79;nan
24390;BME280;12510;56.468;-3.004;2023-04-15T03:05:13;100417.22;;;5.68;nan
24390;BME280;12510;56.468;-3.004;2023-04-15T03:07:50;100416.19;;;5.95;nan
24390;BME280;12510;56.468;-3.004;2023-04-15T03:10:21;100393.06;;;6.01;nan
24390;BME280;12510;56.468;-3.004;2023-04-15T03:12:49;100408.97;;;6.92;nan
24390;BME280;12510;56.468;-3.004;2023-04-15T03:15:19;100435.19;;;5.73;nan
24390;BME280;12510;56.468;-3.004;2023-04-15T03:17:53;100422.66;;;5.28;nan
24390;BME280;12510;56.468;-3.004;2023-04-15T03:20:21;100405.13;;;5.17;nan
24390;BME280;12510;56.468;-3.004;2023-04-15T03:22:49;100366.97;;;5.27;nan
24390;BME280;12510;56.468;-3.004;2023-04-15T03:25:19;100340.81;;;5.16;nan
24390;BME280;12510;56.468;-3.004;2023-04-15T03:27:47;100312.41;;;5.11;nan
24390;BME280;12510;56.468;-3.004;2023-04-15T03:30:14;100287.91;;;5.01;nan
24390;BME280;12510;56.468;-3.004;2023-04-15T03:32:42;100243.53;;;5.01;nan
24390;BME280;12510;56.468;-3.004;2023-04-15T03:35:10;100244.88;;;5.07;nan
24390;BME280;12510;56.468;-3.004;2023-04-15T03:37:38;100230.19;;;4.93;nan
24390;BME280;12510;56.468;-3.004;2023-04-15T03:40:06;100199.50;;;4.96;nan
24390;BME280;12510;56.468;-3.004;2023-04-15T03:42:35;100164.38;;;4.89;nan
24390;BME280;12510;56.468;-3.004;2023-04-15T03:45:03;100132.22;;;4.89;nan
24390;BME280;12510;56.468;-3.004;2023-04-15T03:47:30;100094.13;;;4.86;nan
24390;BME280;12510;56.468;-3.004;2023-04-15T03:49:58;100057.50;;;4.87;nan
24390;BME280;12510;56.468;-3.004;2023-04-15T03:52:26;100036.97;;;4.83;nan
24390;BME280;12510;56.468;-3.004;2023-04-15T03:54:53;100012.66;;;4.82;nan
24390;BME280;12510;56.468;-3.004;2023-04-15T03:57:27;99973.06;;;4.89;nan
24390;BME280;12510;56.468;-3.004;2023-04-15T03:59:55;99946.38;;;4.85;nan
24390;BME280;12510;56.468;-3.004;2023-04-15T04:02:22;99925.03;;;4.80;nan
24390;BME280;12510;56.468;-3.004;2023-04-15T04:04:50;99868.69;;;4.89;nan
24390;BME280;12510;56.468;-3.004;2023-04-15T04:07:22;99859.81;;;4.80;nan
24390;BME280;12510;56.468;-3.004;2023-04-15T04:09:49;99591.75;;;4.72;nan
24390;BME280;12510;56.468;-3.004;2023-04-15T04:12:17;99497.53;;;4.65;nan
24390;BME280;12510;56.468;-3.004;2023-04-15T04:14:45;99445.19;;;4.57;nan
24390;BME280;12510;56.468;-3.004;2023-04-15T04:17:13;99397.09;;;4.50;nan
24390;BME280;12510;56.468;-3.004;2023-04-15T04:19:41;99349.22;;;4.51;nan
24390;BME280;12510;56.468;-3.004;2023-04-15T04:22:08;99344.59;;;4.55;nan
24390;BME280;12510;56.468;-3.004;2023-04-15T04:24:38;99326.47;;;4.53;nan
24390;BME280;12510;56.468;-3.004;2023-04-15T04:27:06;99287.38;;;4.53;nan
24390;BME280;12510;56.468;-3.004;2023-04-15T04:29:34;99294.59;;;4.49;nan
24390;BME280;12510;56.468;-3.004;2023-04-15T04:32:02;99284.69;;;4.43;nan
24390;BME280;12510;56.468;-3.004;2023-04-15T04:34:30;99262.06;;;4.44;nan
24390;BME280;12510;56.468;-3.004;2023-04-15T04:37:04;99272.63;;;4.42;nan
24390;BME280;12510;56.468;-3.004;2023-04-15T04:39:32;99254.13;;;4.45;nan
24390;BME280;12510;56.468;-3.004;2023-04-15T04:42:00;99262.22;;;4.42;nan
24390;BME280;12510;56.468;-3.004;2023-04-15T04:44:27;99267.00;;;4.47;nan
24390;BME280;12510;56.468;-3.004;2023-04-15T04:46:58;99270.97;;;4.41;nan
24390;BME280;12510;56.468;-3.004;2023-04-15T04:49:25;99266.13;;;4.36;nan
24390;BME280;12510;56.468;-3.004;2023-04-15T04:51:53;99263.13;;;4.31;nan
24390;BME280;12510;56.468;-3.004;2023-04-15T04:54:21;99243.91;;;4.32;nan
24390;BME280;12510;56.468;-3.004;2023-04-15T04:56:50;99240.22;;;4.35;nan
24390;BME280;12510;56.468;-3.004;2023-04-15T04:59:20;99240.66;;;4.40;nan
24390;BME280;12510;56.468;-3.004;2023-04-15T05:01:48;99249.41;;;4.39;nan
24390;BME280;12510;56.468;-3.004;2023-04-15T05:04:16;99241.72;;;4.38;nan
24390;BME280;12510;56.468;-3.004;2023-04-15T05:06:43;99236.38;;;4.39;nan
24390;BME280;12510;56.468;-3.004;2023-04-15T05:09:11;99211.84;;;4.42;nan
24390;BME280;12510;56.468;-3.004;2023-04-15T05:11:41;99217.91;;;4.42;nan
24390;BME280;12510;56.468;-3.004;2023-04-15T05:14:12;99239.44;;;4.54;nan
24390;BME280;12510;56.468;-3.004;2023-04-15T05:16:40;99204.09;;;4.61;nan
24390;BME280;12510;56.468;-3.004;2023-04-15T05:19:07;99240.72;;;4.60;nan
24390;BME280;12510;56.468;-3.004;2023-04-15T05:21:35;99231.25;;;4.59;nan
24390;BME280;12510;56.468;-3.004;2023-04-15T05:24:03;99220.16;;;4.66;nan
24390;BME280;12510;56.468;-3.004;2023-04-15T05:26:31;99236.50;;;4.68;nan
24390;BME280;12510;56.468;-3.004;2023-04-15T05:28:59;99251.59;;;4.65;nan
24390;BME280;12510;56.468;-3.004;2023-04-15T05:31:26;99229.63;;;4.67;nan
24390;BME280;12510;56.468;-3.004;2023-04-15T05:33:54;99247.63;;;4.70;nan
24390;BME280;12510;56.468;-3.004;2023-04-15T05:36:27;99247.63;;;4.70;nan
24390;BME280;12510;56.468;-3.004;2023-04-15T05:38:55;99225.81;;;4.81;nan
24390;BME280;12510;56.468;-3.004;2023-04-15T05:41:22;99247.41;;;4.93;nan
24390;BME280;12510;56.468;-3.004;2023-04-15T05:43:50;99267.72;;;4.99;nan
24390;BME280;12510;56.468;-3.004;2023-04-15T05:46:18;99294.66;;;5.00;nan
24390;BME280;12510;56.468;-3.004;2023-04-15T05:48:48;99292.06;;;5.00;nan
24390;BME280;12510;56.468;-3.004;2023-04-15T05:51:16;99300.31;;;5.05;nan
24390;BME280;12510;56.468;-3.004;2023-04-15T05:53:43;99302.66;;;5.08;nan
24390;BME280;12510;56.468;-3.004;2023-04-15T05:56:12;99308.69;;;5.09;nan
24390;BME280;12510;56.468;-3.004;2023-04-15T05:58:40;99304.19;;;5.20;nan
24390;BME280;12510;56.468;-3.004;2023-04-15T06:01:07;99320.69;;;5.31;nan
24390;BME280;12510;56.468;-3.004;2023-04-15T06:03:35;99315.75;;;5.37;nan
24390;BME280;12510;56.468;-3.004;2023-04-15T06:06:03;99308.63;;;5.59;nan
24390;BME280;12510;56.468;-3.004;2023-04-15T06:08:31;99311.38;;;5.97;nan
24390;BME280;12510;56.468;-3.004;2023-04-15T06:10:58;99312.06;;;6.28;nan
24390;BME280;12510;56.468;-3.004;2023-04-15T06:13:26;99302.25;;;6.30;nan
24390;BME280;12510;56.468;-3.004;2023-04-15T06:15:54;99300.84;;;6.46;nan
24390;BME280;12510;56.468;-3.004;2023-04-15T06:18:22;99313.53;;;6.41;nan
24390;BME280;12510;56.468;-3.004;2023-04-15T06:20:49;99327.00;;;6.46;nan
24390;BME280;12510;56.468;-3.004;2023-04-15T06:23:17;99324.91;;;6.49;nan
24390;BME280;12510;56.468;-3.004;2023-04-15T06:25:45;99326.16;;;6.55;nan
24390;BME280;12510;56.468;-3.004;2023-04-15T06:28:13;99336.03;;;6.61;nan
24390;BME280;12510;56.468;-3.004;2023-04-15T06:30:41;99315.09;;;6.61;nan
24390;BME280;12510;56.468;-3.004;2023-04-15T06:33:08;99315.69;;;6.55;nan
24390;BME280;12510;56.468;-3.004;2023-04-15T06:35:37;99312.44;;;6.81;nan
24390;BME280;12510;56.468;-3.004;2023-04-15T06:38:05;99314.13;;;7.00;nan
24390;BME280;12510;56.468;-3.004;2023-04-15T06:40:33;99313.09;;;7.11;nan
24390;BME280;12510;56.468;-3.004;2023-04-15T06:43:01;99324.50;;;7.19;nan
24390;BME280;12510;56.468;-3.004;2023-04-15T06:45:29;99313.63;;;7.42;nan
24390;BME280;12510;56.468;-3.004;2023-04-15T06:47:56;99312.69;;;7.87;nan
24390;BME280;12510;56.468;-3.004;2023-04-15T06:50:24;99328.91;;;8.80;nan
24390;BME280;12510;56.468;-3.004;2023-04-15T06:52:55;99329.94;;;9.38;nan
24390;BME280;12510;56.468;-3.004;2023-04-15T06:55:22;99332.44;;;10.63;nan
24390;BME280;12510;56.468;-3.004;2023-04-15T06:57:50;99319.56;;;11.71;nan
24390;BME280;12510;56.468;-3.004;2023-04-15T07:00:18;99316.22;;;12.68;nan
24390;BME280;12510;56.468;-3.004;2023-04-15T07:02:45;99294.69;;;13.74;nan
24390;BME280;12510;56.468;-3.004;2023-04-15T07:05:13;99232.00;;;14.67;nan
24390;BME280;12510;56.468;-3.004;2023-04-15T07:07:41;100659.56;;;15.16;nan
24390;BME280;12510;56.468;-3.004;2023-04-15T07:10:09;100887.09;;;15.47;nan
24390;BME280;12510;56.468;-3.004;2023-04-15T07:12:38;100926.69;;;16.65;nan
24390;BME280;12510;56.468;-3.004;2023-04-15T07:15:06;100962.44;;;16.21;nan
24390;BME280;12510;56.468;-3.004;2023-04-15T07:17:34;100971.53;;;16.76;nan
24390;BME280;12510;56.468;-3.004;2023-04-15T07:20:02;100986.97;;;17.06;nan
24390;BME280;12510;56.468;-3.004;2023-04-15T07:22:31;100988.06;;;18.84;nan
24390;BME280;12510;56.468;-3.004;2023-04-15T07:24:59;100983.44;;;18.77;nan
24390;BME280;12510;56.468;-3.004;2023-04-15T07:27:27;100988.84;;;19.37;nan
24390;BME280;12510;56.468;-3.004;2023-04-15T07:29:55;100987.09;;;19.30;nan
24390;BME280;12510;56.468;-3.004;2023-04-15T07:32:23;100993.34;;;19.07;nan
24390;BME280;12510;56.468;-3.004;2023-04-15T07:34:50;101004.56;;;18.49;nan
24390;BME280;12510;56.468;-3.004;2023-04-15T07:37:18;101004.03;;;18.31;nan
24390;BME280;12510;56.468;-3.004;2023-04-15T07:39:46;100999.91;;;18.66;nan
24390;BME280;12510;56.468;-3.004;2023-04-15T07:42:14;101012.69;;;19.24;nan
24390;BME280;12510;56.468;-3.004;2023-04-15T07:44:42;101012.16;;;20.82;nan
24390;BME280;12510;56.468;-3.004;2023-04-15T07:47:09;101007.47;;;20.19;nan
24390;BME280;12510;56.468;-3.004;2023-04-15T07:49:38;101000.81;;;20.58;nan
24390;BME280;12510;56.468;-3.004;2023-04-15T07:52:05;101002.13;;;20.40;nan
24390;BME280;12510;56.468;-3.004;2023-04-15T07:54:33;100989.50;;;21.54;nan
24390;BME280;12510;56.468;-3.004;2023-04-15T07:57:01;100981.97;;;21.85;nan
24390;BME280;12510;56.468;-3.004;2023-04-15T07:59:29;100994.06;;;21.67;nan
24390;BME280;12510;56.468;-3.004;2023-04-15T08:01:59;100984.72;;;22.25;nan
24390;BME280;12510;56.468;-3.004;2023-04-15T08:04:27;101006.00;;;21.23;nan
24390;BME280;12510;56.468;-3.004;2023-04-15T08:06:55;100974.66;;;23.46;nan
24390;BME280;12510;56.468;-3.004;2023-04-15T08:09:23;100996.91;;;22.74;nan
24390;BME280;12510;56.468;-3.004;2023-04-15T08:11:50;101006.78;;;22.14;nan
24390;BME280;12510;56.468;-3.004;2023-04-15T08:14:18;101009.03;;;23.24;nan
24390;BME280;12510;56.468;-3.004;2023-04-15T08:16:46;100997.25;;;23.25;nan
24390;BME280;12510;56.468;-3.004;2023-04-15T08:19:14;101012.63;;;22.37;nan
24390;BME280;12510;56.468;-3.004;2023-04-15T08:21:41;101003.72;;;24.65;nan
24390;BME280;12510;56.468;-3.004;2023-04-15T08:24:09;100995.88;;;24.32;nan
24390;BME280;12510;56.468;-3.004;2023-04-15T08:26:37;101021.28;;;22.80;nan
24390;BME280;12510;56.468;-3.004;2023-04-15T08:29:05;101032.75;;;23.40;nan
24390;BME280;12510;56.468;-3.004;2023-04-15T08:31:33;101013.31;;;24.80;nan
24390;BME280;12510;56.468;-3.004;2023-04-15T08:34:00;101037.78;;;24.21;nan
24390;BME280;12510;56.468;-3.004;2023-04-15T08:36:28;101057.00;;;22.87;nan
24390;BME280;12510;56.468;-3.004;2023-04-15T08:38:56;101053.41;;;23.40;nan
24390;BME280;12510;56.468;-3.004;2023-04-15T08:41:25;101058.81;;;23.33;nan
24390;BME280;12510;56.468;-3.004;2023-04-15T08:43:57;101064.22;;;22.53;nan
24390;BME280;12510;56.468;-3.004;2023-04-15T08:46:25;101062.19;;;22.75;nan
24390;BME280;12510;56.468;-3.004;2023-04-15T08:48:56;101073.72;;;23.02;nan
24390;BME280;12510;56.468;-3.004;2023-04-15T08:51:24;101044.09;;;24.65;nan
24390;BME280;12510;56.468;-3.004;2023-04-15T08:53:53;101050.31;;;24.66;nan
24390;BME280;12510;56.468;-3.004;2023-04-15T08:56:25;101052.50;;;24.75;nan
24390;BME280;12510;56.468;-3.004;2023-04-15T08:58:53;101050.94;;;26.28;nan
24390;BME280;12510;56.468;-3.004;2023-04-15T09:01:21;101036.72;;;26.87;nan
24390;BME280;12510;56.468;-3.004;2023-04-15T09:03:49;101035.03;;;27.45;nan
24390;BME280;12510;56.468;-3.004;2023-04-15T09:06:19;101061.03;;;25.16;nan
24390;BME280;12510;56.468;-3.004;2023-04-15T09:08:48;101090.22;;;23.39;nan
24390;BME280;12510;56.468;-3.004;2023-04-15T09:11:16;101054.63;;;24.92;nan
24390;BME280;12510;56.468;-3.004;2023-04-15T09:13:48;101061.09;;;25.09;nan
24390;BME280;12510;56.468;-3.004;2023-04-15T09:16:16;101079.16;;;25.09;nan
24390;BME280;12510;56.468;-3.004;2023-04-15T09:18:43;101069.31;;;24.96;nan
24390;BME280;12510;56.468;-3.004;2023-04-15T09:21:13;101069.66;;;25.62;nan
24390;BME280;12510;56.468;-3.004;2023-04-15T09:23:58;101048.97;;;25.74;nan
24390;BME280;12510;56.468;-3.004;2023-04-15T09:26:36;101069.03;;;24.47;nan
24390;BME280;12510;56.468;-3.004;2023-04-15T09:29:10;101078.47;;;23.34;nan
24390;BME280;12510;56.468;-3.004;2023-04-15T09:31:41;101107.56;;;22.36;nan
24390;BME280;12510;56.468;-3.004;2023-04-15T09:34:09;101097.59;;;24.16;nan
24390;BME280;12510;56.468;-3.004;2023-04-15T09:39:15;101092.91;;;23.39;nan
24390;BME280;12510;56.468;-3.004;2023-04-15T09:41:43;101114.94;;;23.75;nan
24390;BME280;12510;56.468;-3.004;2023-04-15T09:44:24;101090.78;;;23.62;nan
24390;BME280;12510;56.468;-3.004;2023-04-15T09:46:52;101079.09;;;24.90;nan
24390;BME280;12510;56.468;-3.004;2023-04-15T09:49:20;101112.22;;;22.21;nan
24390;BME280;12510;56.468;-3.004;2023-04-15T09:51:48;101103.16;;;24.21;nan
24390;BME280;12510;56.468;-3.004;2023-04-15T09:54:20;101107.78;;;21.86;nan
24390;BME280;12510;56.468;-3.004;2023-04-15T09:56:48;101107.41;;;23.32;nan
24390;BME280;12510;56.468;-3.004;2023-04-15T09:59:16;101101.13;;;23.58;nan
24390;BME280;12510;56.468;-3.004;2023-04-15T10:01:44;101096.84;;;23.43;nan
24390;BME280;12510;56.468;-3.004;2023-04-15T10:04:12;101112.16;;;23.30;nan
24390;BME280;12510;56.468;-3.004;2023-04-15T10:06:40;101124.56;;;24.03;nan
24390;BME280;12510;56.468;-3.004;2023-04-15T10:09:08;101131.13;;;22.74;nan
24390;BME280;12510;56.468;-3.004;2023-04-15T10:11:36;101128.63;;;23.60;nan
24390;BME280;12510;56.468;-3.004;2023-04-15T10:14:04;101128.81;;;23.65;nan
24390;BME280;12510;56.468;-3.004;2023-04-15T10:16:36;101133.03;;;22.94;nan
24390;BME280;12510;56.468;-3.004;2023-04-15T10:19:06;101121.59;;;24.56;nan
24390;BME280;12510;56.468;-3.004;2023-04-15T10:21:36;101126.34;;;24.93;nan
24390;BME280;12510;56.468;-3.004;2023-04-15T10:24:05;101140.47;;;23.46;nan
24390;BME280;12510;56.468;-3.004;2023-04-15T10:26:33;101153.91;;;22.99;nan
24390;BME280;12510;56.468;-3.004;2023-04-15T10:29:02;101139.31;;;23.93;nan
24390;BME280;12510;56.468;-3.004;2023-04-15T10:31:30;101135.03;;;24.24;nan
24390;BME280;12510;56.468;-3.004;2023-04-15T10:33:58;101164.09;;;25.37;nan
24390;BME280;12510;56.468;-3.004;2023-04-15T10:36:30;101141.16;;;24.00;nan
24390;BME280;12510;56.468;-3.004;2023-04-15T10:38:58;101118.56;;;24.78;nan
24390;BME280;12510;56.468;-3.004;2023-04-15T10:41:27;101162.81;;;22.24;nan
24390;BME280;12510;56.468;-3.004;2023-04-15T10:44:02;101161.66;;;22.47;nan
24390;BME280;12510;56.468;-3.004;2023-04-15T10:46:43;101158.59;;;23.70;nan
24390;BME280;12510;56.468;-3.004;2023-04-15T10:49:16;101169.59;;;23.08;nan
24390;BME280;12510;56.468;-3.004;2023-04-15T10:51:57;101170.53;;;21.99;nan
24390;BME280;12510;56.468;-3.004;2023-04-15T10:59:31;101165.16;;;22.40;nan
24390;BME280;12510;56.468;-3.004;2023-04-15T11:02:01;101169.53;;;22.55;nan
24390;BME280;12510;56.468;-3.004;2023-04-15T11:04:54;101179.81;;;22.51;nan
24390;BME280;12510;56.468;-3.004;2023-04-15T11:07:46;101183.16;;;22.53;nan
24390;BME280;12510;56.468;-3.004;2023-04-15T11:15:37;101198.38;;;21.13;nan
24390;BME280;12510;56.468;-3.004;2023-04-15T11:18:16;101211.56;;;19.28;nan
24390;BME280;12510;56.468;-3.004;2023-04-15T11:20:52;101234.94;;;17.59;nan
24390;BME280;12510;56.468;-3.004;2023-04-15T11:23:30;101238.09;;;17.79;nan
24390;BME280;12510;56.468;-3.004;2023-04-15T11:26:00;101232.91;;;18.02;nan
24390;BME280;12510;56.468;-3.004;2023-04-15T11:28:29;101224.25;;;17.92;nan
24390;BME280;12510;56.468;-3.004;2023-04-15T11:31:02;101226.44;;;17.22;nan
24390;BME280;12510;56.468;-3.004;2023-04-15T11:33:32;101224.41;;;17.90;nan
24390;BME280;12510;56.468;-3.004;2023-04-15T11:36:00;101225.72;;;18.51;nan
24390;BME280;12510;56.468;-3.004;2023-04-15T11:38:28;101211.13;;;19.01;nan
24390;BME280;12510;56.468;-3.004;2023-04-15T11:40:57;101210.44;;;19.99;nan
24390;BME280;12510;56.468;-3.004;2023-04-15T11:43:25;101203.50;;;20.04;nan
24390;BME280;12510;56.468;-3.004;2023-04-15T11:45:54;101209.28;;;19.93;nan
24390;BME280;12510;56.468;-3.004;2023-04-15T11:55:48;101210.78;;;20.62;nan
24390;BME280;12510;56.468;-3.004;2023-04-15T11:58:17;101225.91;;;20.03;nan
24390;BME280;12510;56.468;-3.004;2023-04-15T12:00:56;101225.88;;;20.18;nan
24390;BME280;12510;56.468;-3.004;2023-04-15T12:03:29;101222.31;;;19.96;nan
24390;BME280;12510;56.468;-3.004;2023-04-15T12:06:09;101250.09;;;19.72;nan
24390;BME280;12510;56.468;-3.004;2023-04-15T12:09:09;101242.03;;;19.57;nan
24390;BME280;12510;56.468;-3.004;2023-04-15T12:11:49;101237.34;;;20.27;nan
24390;BME280;12510;56.468;-3.004;2023-04-15T12:16:56;101220.19;;;20.06;nan
24390;BME280;12510;56.468;-3.004;2023-04-15T12:21:50;101235.56;;;20.34;nan
24390;BME280;12510;56.468;-3.004;2023-04-15T12:24:20;101231.13;;;20.93;nan
24390;BME280;12510;56.468;-3.004;2023-04-15T12:26:48;101221.56;;;20.17;nan
24390;BME280;12510;56.468;-3.004;2023-04-15T12:29:19;101227.69;;;20.48;nan
24390;BME280;12510;56.468;-3.004;2023-04-15T12:31:54;101201.47;;;22.01;nan
24390;BME280;12510;56.468;-3.004;2023-04-15T12:34:38;101203.44;;;21.86;nan
24390;BME280;12510;56.468;-3.004;2023-04-15T12:37:06;101192.34;;;21.60;nan
24390;BME280;12510;56.468;-3.004;2023-04-15T12:39:35;101196.31;;;22.41;nan
24390;BME280;12510;56.468;-3.004;2023-04-15T12:42:08;101202.22;;;22.85;nan
24390;BME280;12510;56.468;-3.004;2023-04-15T12:44:37;101195.25;;;23.18;nan
24390;BME280;12510;56.468;-3.004;2023-04-15T12:47:06;101199.34;;;21.90;nan
24390;BME280;12510;56.468;-3.004;2023-04-15T12:49:32;101193.97;;;21.90;nan
24390;BME280;12510;56.468;-3.004;2023-04-15T12:52:02;101233.16;;;22.74;nan
24390;BME280;12510;56.468;-3.004;2023-04-15T12:54:32;101212.66;;;22.47;nan
24390;BME280;12510;56.468;-3.004;2023-04-15T12:56:59;101190.09;;;23.23;nan
24390;BME280;12510;56.468;-3.004;2023-04-15T12:59:26;101185.75;;;23.29;nan
24390;BME280;12510;56.468;-3.004;2023-04-15T13:01:55;101193.13;;;23.00;nan
24390;BME280;12510;56.468;-3.004;2023-04-15T13:04:22;101207.34;;;22.67;nan
24390;BME280;12510;56.468;-3.004;2023-04-15T13:06:48;101209.03;;;21.56;nan
24390;BME280;12510;56.468;-3.004;2023-04-15T13:09:15;101208.59;;;22.22;nan
24390;BME280;12510;56.468;-3.004;2023-04-15T13:11:44;101207.63;;;21.60;nan
24390;BME280;12510;56.468;-3.004;2023-04-15T13:14:11;101216.13;;;22.40;nan
24390;BME280;12510;56.468;-3.004;2023-04-15T13:16:38;101214.75;;;22.58;nan
24390;BME280;12510;56.468;-3.004;2023-04-15T13:19:04;101217.00;;;22.54;nan
24390;BME280;12510;56.468;-3.004;2023-04-15T13:21:33;101196.31;;;21.65;nan
24390;BME280;12510;56.468;-3.004;2023-04-15T13:24:00;101196.66;;;21.55;nan
24390;BME280;12510;56.468;-3.004;2023-04-15T13:26:27;101194.53;;;21.00;nan
24390;BME280;12510;56.468;-3.004;2023-04-15T13:28:53;101237.19;;;21.02;nan
24390;BME280;12510;56.468;-3.004;2023-04-15T13:31:20;101219.59;;;21.14;nan
24390;BME280;12510;56.468;-3.004;2023-04-15T13:33:46;101199.94;;;21.29;nan
24390;BME280;12510;56.468;-3.004;2023-04-15T13:36:15;101193.50;;;21.01;nan